sensor_id;sensor_type;location;lat;lon;timestamp;P1;durP1;ratioP1;P2;durP2;ratioP2
48873;SDS011;66155;46.204;5.220;2024-01-25T00:02:12;8.43;;;7.45;;
48873;SDS011;66155;46.204;5.220;2024-01-25T00:07:12;8.63;;;6.90;;
48873;SDS011;66155;46.204;5.220;2024-01-25T00:12:13;9.60;;;8.00;;
48873;SDS011;66155;46.204;5.220;2024-01-25T00:17:13;11.77;;;8.65;;
48873;SDS011;66155;46.204;5.220;2024-01-25T00:22:13;10.27;;;8.10;;
48873;SDS011;66155;46.204;5.220;2024-01-25T00:27:14;10.32;;;8.70;;
48873;SDS011;66155;46.204;5.220;2024-01-25T00:32:14;7.25;;;6.65;;
48873;SDS011;66155;46.204;5.220;2024-01-25T00:37:15;5.88;;;5.35;;
48873;SDS011;66155;46.204;5.220;2024-01-25T00:42:16;6.90;;;6.25;;
48873;SDS011;66155;46.204;5.220;2024-01-25T00:47:16;8.60;;;6.63;;
48873;SDS011;66155;46.204;5.220;2024-01-25T00:52:17;7.43;;;6.72;;
48873;SDS011;66155;46.204;5.220;2024-01-25T00:57:18;7.28;;;6.10;;
48873;SDS011;66155;46.204;5.220;2024-01-25T01:02:18;6.30;;;5.70;;
48873;SDS011;66155;46.204;5.220;2024-01-25T01:07:22;7.38;;;6.07;;
48873;SDS011;66155;46.204;5.220;2024-01-25T01:12:22;10.18;;;6.05;;
48873;SDS011;66155;46.204;5.220;2024-01-25T01:17:23;7.00;;;6.32;;
48873;SDS011;66155;46.204;5.220;2024-01-25T01:22:23;7.22;;;6.50;;
48873;SDS011;66155;46.204;5.220;2024-01-25T01:27:23;6.20;;;5.70;;
48873;SDS011;66155;46.204;5.220;2024-01-25T01:32:24;7.10;;;5.75;;
48873;SDS011;66155;46.204;5.220;2024-01-25T01:37:24;6.70;;;6.07;;
48873;SDS011;66155;46.204;5.220;2024-01-25T01:42:25;7.05;;;5.90;;
48873;SDS011;66155;46.204;5.220;2024-01-25T01:47:26;6.95;;;5.30;;
48873;SDS011;66155;46.204;5.220;2024-01-25T01:52:26;8.75;;;5.32;;
48873;SDS011;66155;46.204;5.220;2024-01-25T01:57:27;6.43;;;5.82;;
48873;SDS011;66155;46.204;5.220;2024-01-25T02:02:28;5.30;;;4.90;;
48873;SDS011;66155;46.204;5.220;2024-01-25T02:07:29;7.03;;;4.88;;
48873;SDS011;66155;46.204;5.220;2024-01-25T02:12:30;5.13;;;4.72;;
48873;SDS011;66155;46.204;5.220;2024-01-25T02:17:31;5.15;;;4.45;;
48873;SDS011;66155;46.204;5.220;2024-01-25T02:22:31;5.25;;;4.75;;
48873;SDS011;66155;46.204;5.220;2024-01-25T02:27:32;5.70;;;5.20;;
48873;SDS011;66155;46.204;5.220;2024-01-25T02:32:38;5.85;;;5.35;;
48873;SDS011;66155;46.204;5.220;2024-01-25T02:37:39;5.35;;;4.82;;
48873;SDS011;66155;46.204;5.220;2024-01-25T02:42:39;6.57;;;4.63;;
48873;SDS011;66155;46.204;5.220;2024-01-25T02:47:40;4.63;;;4.32;;
48873;SDS011;66155;46.204;5.220;2024-01-25T02:52:40;4.38;;;3.97;;
48873;SDS011;66155;46.204;5.220;2024-01-25T02:57:41;4.20;;;3.90;;
48873;SDS011;66155;46.204;5.220;2024-01-25T03:02:42;4.40;;;4.00;;
48873;SDS011;66155;46.204;5.220;2024-01-25T03:07:42;4.78;;;4.57;;
48873;SDS011;66155;46.204;5.220;2024-01-25T03:12:42;5.32;;;4.85;;
48873;SDS011;66155;46.204;5.220;2024-01-25T03:17:43;6.28;;;4.57;;
48873;SDS011;66155;46.204;5.220;2024-01-25T03:22:43;4.32;;;4.03;;
48873;SDS011;66155;46.204;5.220;2024-01-25T03:27:44;4.80;;;4.30;;
48873;SDS011;66155;46.204;5.220;2024-01-25T03:32:45;4.32;;;3.92;;
48873;SDS011;66155;46.204;5.220;2024-01-25T03:37:46;4.00;;;3.70;;
48873;SDS011;66155;46.204;5.220;2024-01-25T03:42:47;4.63;;;4.30;;
48873;SDS011;66155;46.204;5.220;2024-01-25T03:47:48;4.15;;;3.83;;
48873;SDS011;66155;46.204;5.220;2024-01-25T03:52:48;4.55;;;4.25;;
48873;SDS011;66155;46.204;5.220;2024-01-25T03:57:48;4.60;;;4.30;;
48873;SDS011;66155;46.204;5.220;2024-01-25T04:02:49;4.47;;;4.13;;
48873;SDS011;66155;46.204;5.220;2024-01-25T04:07:50;4.95;;;4.40;;
48873;SDS011;66155;46.204;5.220;2024-01-25T04:12:50;4.53;;;3.80;;
48873;SDS011;66155;46.204;5.220;2024-01-25T04:17:51;4.93;;;4.55;;
48873;SDS011;66155;46.204;5.220;2024-01-25T04:22:53;4.28;;;3.97;;
48873;SDS011;66155;46.204;5.220;2024-01-25T04:27:53;3.90;;;3.60;;
48873;SDS011;66155;46.204;5.220;2024-01-25T04:32:54;4.07;;;3.78;;
48873;SDS011;66155;46.204;5.220;2024-01-25T04:37:54;4.13;;;3.78;;
48873;SDS011;66155;46.204;5.220;2024-01-25T04:42:54;4.60;;;4.30;;
48873;SDS011;66155;46.204;5.220;2024-01-25T04:47:55;4.70;;;4.30;;
48873;SDS011;66155;46.204;5.220;2024-01-25T04:52:55;3.97;;;3.78;;
48873;SDS011;66155;46.204;5.220;2024-01-25T04:57:56;4.55;;;4.25;;
48873;SDS011;66155;46.204;5.220;2024-01-25T05:02:56;4.30;;;4.00;;
48873;SDS011;66155;46.204;5.220;2024-01-25T05:07:57;4.32;;;3.92;;
48873;SDS011;66155;46.204;5.220;2024-01-25T05:12:57;7.75;;;4.60;;
48873;SDS011;66155;46.204;5.220;2024-01-25T05:17:57;6.05;;;5.45;;
48873;SDS011;66155;46.204;5.220;2024-01-25T05:22:58;6.88;;;4.32;;
48873;SDS011;66155;46.204;5.220;2024-01-25T05:27:59;4.72;;;4.32;;
48873;SDS011;66155;46.204;5.220;2024-01-25T05:33:00;4.90;;;4.40;;
48873;SDS011;66155;46.204;5.220;2024-01-25T05:38:01;4.40;;;3.92;;
48873;SDS011;66155;46.204;5.220;2024-01-25T05:43:01;5.03;;;4.47;;
48873;SDS011;66155;46.204;5.220;2024-01-25T05:48:02;4.85;;;4.35;;
48873;SDS011;66155;46.204;5.220;2024-01-25T05:53:03;7.25;;;4.65;;
48873;SDS011;66155;46.204;5.220;2024-01-25T05:58:03;4.93;;;4.60;;
48873;SDS011;66155;46.204;5.220;2024-01-25T06:03:04;5.70;;;5.30;;
48873;SDS011;66155;46.204;5.220;2024-01-25T06:08:05;6.45;;;5.85;;
48873;SDS011;66155;46.204;5.220;2024-01-25T06:13:05;6.07;;;4.60;;
48873;SDS011;66155;46.204;5.220;2024-01-25T06:18:06;8.45;;;7.13;;
48873;SDS011;66155;46.204;5.220;2024-01-25T06:23:06;6.03;;;5.45;;
48873;SDS011;66155;46.204;5.220;2024-01-25T06:28:07;8.30;;;4.93;;
48873;SDS011;66155;46.204;5.220;2024-01-25T06:33:07;5.30;;;4.90;;
48873;SDS011;66155;46.204;5.220;2024-01-25T06:38:07;5.43;;;4.95;;
48873;SDS011;66155;46.204;5.220;2024-01-25T06:43:08;6.35;;;5.18;;
48873;SDS011;66155;46.204;5.220;2024-01-25T06:48:08;7.13;;;5.25;;
48873;SDS011;66155;46.204;5.220;2024-01-25T06:53:09;5.22;;;4.70;;
48873;SDS011;66155;46.204;5.220;2024-01-25T06:58:09;6.55;;;6.03;;
48873;SDS011;66155;46.204;5.220;2024-01-25T07:03:10;8.35;;;5.85;;
48873;SDS011;66155;46.204;5.220;2024-01-25T07:08:11;6.25;;;5.78;;
48873;SDS011;66155;46.204;5.220;2024-01-25T07:13:13;6.20;;;5.60;;
48873;SDS011;66155;46.204;5.220;2024-01-25T07:18:13;5.18;;;4.70;;
48873;SDS011;66155;46.204;5.220;2024-01-25T07:23:14;6.28;;;5.38;;
48873;SDS011;66155;46.204;5.220;2024-01-25T07:28:14;9.52;;;5.88;;
48873;SDS011;66155;46.204;5.220;2024-01-25T07:33:15;7.63;;;6.78;;
48873;SDS011;66155;46.204;5.220;2024-01-25T07:38:16;6.40;;;5.80;;
48873;SDS011;66155;46.204;5.220;2024-01-25T07:43:16;6.97;;;5.93;;
48873;SDS011;66155;46.204;5.220;2024-01-25T07:48:17;7.65;;;6.65;;
48873;SDS011;66155;46.204;5.220;2024-01-25T07:53:17;8.55;;;5.95;;
48873;SDS011;66155;46.204;5.220;2024-01-25T07:58:18;11.40;;;9.40;;
48873;SDS011;66155;46.204;5.220;2024-01-25T08:03:19;10.40;;;8.27;;
48873;SDS011;66155;46.204;5.220;2024-01-25T08:08:19;6.40;;;5.77;;
48873;SDS011;66155;46.204;5.220;2024-01-25T08:13:21;10.35;;;6.55;;
48873;SDS011;66155;46.204;5.220;2024-01-25T08:18:22;7.50;;;6.63;;
48873;SDS011;66155;46.204;5.220;2024-01-25T08:23:23;9.38;;;6.65;;
48873;SDS011;66155;46.204;5.220;2024-01-25T08:28:24;7.95;;;7.10;;
48873;SDS011;66155;46.204;5.220;2024-01-25T08:33:24;7.70;;;6.82;;
48873;SDS011;66155;46.204;5.220;2024-01-25T08:38:25;9.15;;;6.35;;
48873;SDS011;66155;46.204;5.220;2024-01-25T08:43:26;7.72;;;6.32;;
48873;SDS011;66155;46.204;5.220;2024-01-25T08:48:26;7.65;;;6.07;;
48873;SDS011;66155;46.204;5.220;2024-01-25T08:53:27;12.02;;;6.03;;
48873;SDS011;66155;46.204;5.220;2024-01-25T08:58:28;6.97;;;6.28;;
48873;SDS011;66155;46.204;5.220;2024-01-25T09:03:28;6.82;;;6.22;;
48873;SDS011;66155;46.204;5.220;2024-01-25T09:08:29;6.68;;;6.03;;
48873;SDS011;66155;46.204;5.220;2024-01-25T09:13:29;7.25;;;6.55;;
48873;SDS011;66155;46.204;5.220;2024-01-25T09:18:30;6.40;;;5.90;;
48873;SDS011;66155;46.204;5.220;2024-01-25T09:23:30;6.40;;;5.80;;
48873;SDS011;66155;46.204;5.220;2024-01-25T09:28:30;8.10;;;6.60;;
48873;SDS011;66155;46.204;5.220;2024-01-25T09:33:31;7.45;;;5.72;;
48873;SDS011;66155;46.204;5.220;2024-01-25T09:38:31;6.90;;;6.20;;
48873;SDS011;66155;46.204;5.220;2024-01-25T09:43:32;6.47;;;5.88;;
48873;SDS011;66155;46.204;5.220;2024-01-25T09:48:32;7.13;;;6.53;;
48873;SDS011;66155;46.204;5.220;2024-01-25T09:53:33;6.15;;;5.55;;
48873;SDS011;66155;46.204;5.220;2024-01-25T09:58:41;6.22;;;5.72;;
48873;SDS011;66155;46.204;5.220;2024-01-25T10:03:43;5.80;;;5.40;;
48873;SDS011;66155;46.204;5.220;2024-01-25T10:08:45;6.03;;;5.53;;
48873;SDS011;66155;46.204;5.220;2024-01-25T10:13:47;6.05;;;4.70;;
48873;SDS011;66155;46.204;5.220;2024-01-25T10:18:50;5.72;;;5.30;;
48873;SDS011;66155;46.204;5.220;2024-01-25T10:23:52;5.25;;;4.85;;
48873;SDS011;66155;46.204;5.220;2024-01-25T10:28:54;5.90;;;5.40;;
48873;SDS011;66155;46.204;5.220;2024-01-25T10:33:55;6.00;;;5.60;;
48873;SDS011;66155;46.204;5.220;2024-01-25T10:38:56;6.30;;;5.80;;
48873;SDS011;66155;46.204;5.220;2024-01-25T10:43:57;7.30;;;6.70;;
48873;SDS011;66155;46.204;5.220;2024-01-25T10:48:58;7.43;;;5.93;;
48873;SDS011;66155;46.204;5.220;2024-01-25T10:54:01;7.75;;;7.25;;
48873;SDS011;66155;46.204;5.220;2024-01-25T10:59:04;6.47;;;5.88;;
48873;SDS011;66155;46.204;5.220;2024-01-25T11:04:16;6.30;;;5.70;;
48873;SDS011;66155;46.204;5.220;2024-01-25T11:09:18;7.53;;;6.05;;
48873;SDS011;66155;46.204;5.220;2024-01-25T11:14:21;5.93;;;5.55;;
48873;SDS011;66155;46.204;5.220;2024-01-25T11:19:21;5.70;;;5.20;;
48873;SDS011;66155;46.204;5.220;2024-01-25T11:24:23;5.22;;;4.82;;
48873;SDS011;66155;46.204;5.220;2024-01-25T11:29:26;6.43;;;5.80;;
48873;SDS011;66155;46.204;5.220;2024-01-25T11:34:27;6.25;;;5.75;;
48873;SDS011;66155;46.204;5.220;2024-01-25T11:39:27;7.38;;;6.78;;
48873;SDS011;66155;46.204;5.220;2024-01-25T11:44:29;7.20;;;6.63;;
48873;SDS011;66155;46.204;5.220;2024-01-25T11:49:29;7.05;;;6.55;;
48873;SDS011;66155;46.204;5.220;2024-01-25T11:54:30;6.05;;;5.55;;
48873;SDS011;66155;46.204;5.220;2024-01-25T11:59:30;7.35;;;6.22;;
48873;SDS011;66155;46.204;5.220;2024-01-25T12:04:31;6.72;;;6.07;;
48873;SDS011;66155;46.204;5.220;2024-01-25T12:09:31;7.68;;;6.95;;
48873;SDS011;66155;46.204;5.220;2024-01-25T12:14:32;6.88;;;6.18;;
48873;SDS011;66155;46.204;5.220;2024-01-25T12:19:32;7.25;;;5.70;;
48873;SDS011;66155;46.204;5.220;2024-01-25T12:24:33;10.38;;;5.60;;
48873;SDS011;66155;46.204;5.220;2024-01-25T12:29:33;6.10;;;5.50;;
48873;SDS011;66155;46.204;5.220;2024-01-25T12:34:33;6.10;;;5.63;;
48873;SDS011;66155;46.204;5.220;2024-01-25T12:39:34;6.03;;;5.43;;
48873;SDS011;66155;46.204;5.220;2024-01-25T12:44:34;6.80;;;6.20;;
48873;SDS011;66155;46.204;5.220;2024-01-25T12:49:35;7.03;;;6.30;;
48873;SDS011;66155;46.204;5.220;2024-01-25T12:54:35;6.95;;;6.47;;
48873;SDS011;66155;46.204;5.220;2024-01-25T12:59:38;6.40;;;6.00;;
48873;SDS011;66155;46.204;5.220;2024-01-25T13:04:39;6.70;;;6.30;;
48873;SDS011;66155;46.204;5.220;2024-01-25T13:09:39;5.28;;;4.88;;
48873;SDS011;66155;46.204;5.220;2024-01-25T13:14:40;7.50;;;7.00;;
48873;SDS011;66155;46.204;5.220;2024-01-25T13:19:40;6.32;;;5.68;;
48873;SDS011;66155;46.204;5.220;2024-01-25T13:24:40;5.82;;;5.38;;
48873;SDS011;66155;46.204;5.220;2024-01-25T13:29:41;5.85;;;5.45;;
48873;SDS011;66155;46.204;5.220;2024-01-25T13:34:41;6.70;;;6.20;;
48873;SDS011;66155;46.204;5.220;2024-01-25T13:39:42;6.87;;;6.37;;
48873;SDS011;66155;46.204;5.220;2024-01-25T13:44:42;9.13;;;8.52;;
48873;SDS011;66155;46.204;5.220;2024-01-25T13:49:43;6.95;;;6.40;;
48873;SDS011;66155;46.204;5.220;2024-01-25T13:54:44;6.50;;;6.00;;
48873;SDS011;66155;46.204;5.220;2024-01-25T13:59:44;7.38;;;6.88;;
48873;SDS011;66155;46.204;5.220;2024-01-25T14:04:45;7.00;;;5.90;;
48873;SDS011;66155;46.204;5.220;2024-01-25T14:09:45;7.88;;;7.15;;
48873;SDS011;66155;46.204;5.220;2024-01-25T14:14:46;4.97;;;4.57;;
48873;SDS011;66155;46.204;5.220;2024-01-25T14:19:46;6.07;;;5.47;;
48873;SDS011;66155;46.204;5.220;2024-01-25T14:24:47;5.32;;;4.88;;
48873;SDS011;66155;46.204;5.220;2024-01-25T14:29:47;5.75;;;5.35;;
48873;SDS011;66155;46.204;5.220;2024-01-25T14:34:49;6.22;;;5.63;;
48873;SDS011;66155;46.204;5.220;2024-01-25T14:39:50;6.47;;;5.88;;
48873;SDS011;66155;46.204;5.220;2024-01-25T14:44:51;5.90;;;5.40;;
48873;SDS011;66155;46.204;5.220;2024-01-25T14:49:51;5.20;;;4.78;;
48873;SDS011;66155;46.204;5.220;2024-01-25T14:54:52;5.57;;;5.18;;
48873;SDS011;66155;46.204;5.220;2024-01-25T14:59:52;4.93;;;4.63;;
48873;SDS011;66155;46.204;5.220;2024-01-25T15:04:53;5.93;;;5.43;;
48873;SDS011;66155;46.204;5.220;2024-01-25T15:09:53;6.00;;;5.40;;
48873;SDS011;66155;46.204;5.220;2024-01-25T15:14:53;5.70;;;5.20;;
48873;SDS011;66155;46.204;5.220;2024-01-25T15:19:54;4.80;;;4.40;;
48873;SDS011;66155;46.204;5.220;2024-01-25T15:24:54;5.10;;;4.70;;
48873;SDS011;66155;46.204;5.220;2024-01-25T15:29:55;5.13;;;4.72;;
48873;SDS011;66155;46.204;5.220;2024-01-25T15:34:55;7.78;;;7.30;;
48873;SDS011;66155;46.204;5.220;2024-01-25T15:39:55;5.20;;;4.70;;
48873;SDS011;66155;46.204;5.220;2024-01-25T15:44:56;6.25;;;5.78;;
48873;SDS011;66155;46.204;5.220;2024-01-25T15:49:56;5.00;;;4.50;;
48873;SDS011;66155;46.204;5.220;2024-01-25T15:54:57;4.95;;;4.55;;
48873;SDS011;66155;46.204;5.220;2024-01-25T15:59:58;5.05;;;4.65;;
48873;SDS011;66155;46.204;5.220;2024-01-25T16:04:59;4.90;;;4.35;;
48873;SDS011;66155;46.204;5.220;2024-01-25T16:09:59;5.82;;;5.32;;
48873;SDS011;66155;46.204;5.220;2024-01-25T16:15:00;5.20;;;4.72;;
48873;SDS011;66155;46.204;5.220;2024-01-25T16:20:00;5.55;;;5.00;;
48873;SDS011;66155;46.204;5.220;2024-01-25T16:25:01;5.15;;;4.65;;
48873;SDS011;66155;46.204;5.220;2024-01-25T16:30:01;7.45;;;6.95;;
48873;SDS011;66155;46.204;5.220;2024-01-25T16:35:02;5.25;;;4.75;;
48873;SDS011;66155;46.204;5.220;2024-01-25T16:40:03;6.38;;;4.50;;
48873;SDS011;66155;46.204;5.220;2024-01-25T16:45:04;7.57;;;7.07;;
48873;SDS011;66155;46.204;5.220;2024-01-25T16:50:05;6.80;;;5.32;;
48873;SDS011;66155;46.204;5.220;2024-01-25T16:55:06;7.68;;;5.22;;
48873;SDS011;66155;46.204;5.220;2024-01-25T17:00:07;7.43;;;5.35;;
48873;SDS011;66155;46.204;5.220;2024-01-25T17:05:08;7.65;;;5.05;;
48873;SDS011;66155;46.204;5.220;2024-01-25T17:10:10;8.68;;;7.97;;
48873;SDS011;66155;46.204;5.220;2024-01-25T17:15:11;5.20;;;4.60;;
48873;SDS011;66155;46.204;5.220;2024-01-25T17:20:12;7.85;;;4.80;;
48873;SDS011;66155;46.204;5.220;2024-01-25T17:25:13;5.63;;;4.95;;
48873;SDS011;66155;46.204;5.220;2024-01-25T17:30:13;7.13;;;6.53;;
48873;SDS011;66155;46.204;5.220;2024-01-25T17:35:14;6.07;;;5.47;;
48873;SDS011;66155;46.204;5.220;2024-01-25T17:40:14;8.27;;;6.43;;
48873;SDS011;66155;46.204;5.220;2024-01-25T17:45:15;9.73;;;6.20;;
48873;SDS011;66155;46.204;5.220;2024-01-25T17:50:16;11.77;;;6.32;;
48873;SDS011;66155;46.204;5.220;2024-01-25T17:55:16;10.68;;;6.32;;
48873;SDS011;66155;46.204;5.220;2024-01-25T18:00:17;7.88;;;5.97;;
48873;SDS011;66155;46.204;5.220;2024-01-25T18:05:17;10.07;;;6.45;;
48873;SDS011;66155;46.204;5.220;2024-01-25T18:10:18;7.85;;;6.47;;
48873;SDS011;66155;46.204;5.220;2024-01-25T18:15:18;8.73;;;5.63;;
48873;SDS011;66155;46.204;5.220;2024-01-25T18:20:19;9.27;;;6.07;;
48873;SDS011;66155;46.204;5.220;2024-01-25T18:25:20;7.85;;;6.40;;
48873;SDS011;66155;46.204;5.220;2024-01-25T18:30:20;8.02;;;6.20;;
48873;SDS011;66155;46.204;5.220;2024-01-25T18:35:21;8.90;;;6.88;;
48873;SDS011;66155;46.204;5.220;2024-01-25T18:40:21;9.80;;;7.10;;
48873;SDS011;66155;46.204;5.220;2024-01-25T18:45:22;6.72;;;6.10;;
48873;SDS011;66155;46.204;5.220;2024-01-25T18:50:22;7.97;;;5.60;;
48873;SDS011;66155;46.204;5.220;2024-01-25T18:55:23;6.13;;;5.53;;
48873;SDS011;66155;46.204;5.220;2024-01-25T19:00:23;6.05;;;5.55;;
48873;SDS011;66155;46.204;5.220;2024-01-25T19:05:24;7.05;;;5.45;;
48873;SDS011;66155;46.204;5.220;2024-01-25T19:10:25;8.50;;;6.57;;
48873;SDS011;66155;46.204;5.220;2024-01-25T19:15:26;9.32;;;6.47;;
48873;SDS011;66155;46.204;5.220;2024-01-25T19:20:26;7.25;;;6.60;;
48873;SDS011;66155;46.204;5.220;2024-01-25T19:25:27;10.65;;;6.60;;
48873;SDS011;66155;46.204;5.220;2024-01-25T19:30:27;7.50;;;6.10;;
48873;SDS011;66155;46.204;5.220;2024-01-25T19:35:29;7.97;;;6.20;;
48873;SDS011;66155;46.204;5.220;2024-01-25T19:40:30;9.02;;;7.47;;
48873;SDS011;66155;46.204;5.220;2024-01-25T19:45:30;6.68;;;5.75;;
48873;SDS011;66155;46.204;5.220;2024-01-25T19:50:31;7.93;;;6.45;;
48873;SDS011;66155;46.204;5.220;2024-01-25T19:55:31;7.97;;;6.72;;
48873;SDS011;66155;46.204;5.220;2024-01-25T20:00:32;8.13;;;7.40;;
48873;SDS011;66155;46.204;5.220;2024-01-25T20:05:33;7.13;;;6.15;;
48873;SDS011;66155;46.204;5.220;2024-01-25T20:10:34;7.50;;;6.15;;
48873;SDS011;66155;46.204;5.220;2024-01-25T20:15:35;8.75;;;6.50;;
48873;SDS011;66155;46.204;5.220;2024-01-25T20:20:35;6.72;;;6.05;;
48873;SDS011;66155;46.204;5.220;2024-01-25T20:25:36;8.77;;;6.40;;
48873;SDS011;66155;46.204;5.220;2024-01-25T20:30:36;7.32;;;6.22;;
48873;SDS011;66155;46.204;5.220;2024-01-25T20:35:38;11.43;;;7.38;;
48873;SDS011;66155;46.204;5.220;2024-01-25T20:40:39;13.35;;;6.88;;
48873;SDS011;66155;46.204;5.220;2024-01-25T20:45:39;9.73;;;6.45;;
48873;SDS011;66155;46.204;5.220;2024-01-25T20:50:40;8.57;;;7.78;;
48873;SDS011;66155;46.204;5.220;2024-01-25T20:55:40;8.98;;;7.10;;
48873;SDS011;66155;46.204;5.220;2024-01-25T21:00:41;10.48;;;7.82;;
48873;SDS011;66155;46.204;5.220;2024-01-25T21:05:41;8.00;;;7.00;;
48873;SDS011;66155;46.204;5.220;2024-01-25T21:10:42;10.13;;;7.15;;
48873;SDS011;66155;46.204;5.220;2024-01-25T21:15:44;8.70;;;6.75;;
48873;SDS011;66155;46.204;5.220;2024-01-25T21:20:45;9.63;;;7.57;;
48873;SDS011;66155;46.204;5.220;2024-01-25T21:25:45;10.00;;;7.00;;
48873;SDS011;66155;46.204;5.220;2024-01-25T21:30:46;8.63;;;6.65;;
48873;SDS011;66155;46.204;5.220;2024-01-25T21:35:46;9.57;;;5.43;;
48873;SDS011;66155;46.204;5.220;2024-01-25T21:40:47;6.40;;;4.80;;
48873;SDS011;66155;46.204;5.220;2024-01-25T21:45:47;8.77;;;5.53;;
48873;SDS011;66155;46.204;5.220;2024-01-25T21:50:48;7.05;;;5.55;;
48873;SDS011;66155;46.204;5.220;2024-01-25T21:55:48;6.20;;;5.60;;
48873;SDS011;66155;46.204;5.220;2024-01-25T22:00:48;7.70;;;6.43;;
48873;SDS011;66155;46.204;5.220;2024-01-25T22:05:49;6.47;;;5.32;;
48873;SDS011;66155;46.204;5.220;2024-01-25T22:10:49;7.25;;;5.82;;
48873;SDS011;66155;46.204;5.220;2024-01-25T22:15:50;6.10;;;5.35;;
48873;SDS011;66155;46.204;5.220;2024-01-25T22:20:53;6.22;;;5.63;;
48873;SDS011;66155;46.204;5.220;2024-01-25T22:25:53;5.85;;;5.00;;
48873;SDS011;66155;46.204;5.220;2024-01-25T22:30:54;5.22;;;4.72;;
48873;SDS011;66155;46.204;5.220;2024-01-25T22:35:54;6.75;;;6.15;;
48873;SDS011;66155;46.204;5.220;2024-01-25T22:40:55;6.38;;;4.55;;
48873;SDS011;66155;46.204;5.220;2024-01-25T22:45:56;4.95;;;4.45;;
48873;SDS011;66155;46.204;5.220;2024-01-25T22:50:57;4.85;;;4.20;;
48873;SDS011;66155;46.204;5.220;2024-01-25T23:01:07;5.15;;;4.75;;
48873;SDS011;66155;46.204;5.220;2024-01-25T23:06:07;5.70;;;5.10;;
48873;SDS011;66155;46.204;5.220;2024-01-25T23:11:08;5.78;;;4.85;;
48873;SDS011;66155;46.204;5.220;2024-01-25T23:16:08;4.13;;;3.72;;
48873;SDS011;66155;46.204;5.220;2024-01-25T23:21:09;4.75;;;4.35;;
48873;SDS011;66155;46.204;5.220;2024-01-25T23:26:09;6.30;;;4.47;;
48873;SDS011;66155;46.204;5.220;2024-01-25T23:31:10;4.57;;;4.20;;
48873;SDS011;66155;46.204;5.220;2024-01-25T23:36:13;5.05;;;4.63;;
48873;SDS011;66155;46.204;5.220;2024-01-25T23:41:14;5.20;;;4.70;;
48873;SDS011;66155;46.204;5.220;2024-01-25T23:46:15;5.07;;;4.47;;
48873;SDS011;66155;46.204;5.220;2024-01-25T23:51:15;4.82;;;4.43;;
48873;SDS011;66155;46.204;5.220;2024-01-25T23:56:16;4.80;;;4.40;;
